sensor_id;sensor_type;location;lat;lon;timestamp;pressure;altitude;pressure_sealevel;temperature;humidity
51829;BME280;37881;48.024;8.774;2022-08-19T00:01:26;93564.19;;;16.94;94.87
51829;BME280;37881;48.024;8.774;2022-08-19T00:03:58;93565.03;;;17.10;94.43
51829;BME280;37881;48.024;8.774;2022-08-19T00:06:27;93553.69;;;16.89;94.58
51829;BME280;37881;48.024;8.774;2022-08-19T00:08:56;93561.25;;;16.89;94.46
51829;BME280;37881;48.024;8.774;2022-08-19T00:11:23;93550.31;;;16.94;94.26
51829;BME280;37881;48.024;8.774;2022-08-19T00:13:53;93558.44;;;17.07;93.60
51829;BME280;37881;48.024;8.774;2022-08-19T00:16:23;93557.81;;;17.12;92.58
51829;BME280;37881;48.024;8.774;2022-08-19T00:18:53;93551.22;;;17.01;93.42
51829;BME280;37881;48.024;8.774;2022-08-19T00:21:22;93549.06;;;17.05;92.93
51829;BME280;37881;48.024;8.774;2022-08-19T00:23:49;93545.84;;;16.97;92.40
51829;BME280;37881;48.024;8.774;2022-08-19T00:26:16;93551.53;;;16.93;92.94
51829;BME280;37881;48.024;8.774;2022-08-19T00:28:43;93560.19;;;16.86;93.66
51829;BME280;37881;48.024;8.774;2022-08-19T00:31:10;93559.84;;;16.93;93.46
51829;BME280;37881;48.024;8.774;2022-08-19T00:33:37;93555.41;;;16.87;94.46
51829;BME280;37881;48.024;8.774;2022-08-19T00:36:06;93564.63;;;16.84;94.50
51829;BME280;37881;48.024;8.774;2022-08-19T00:38:35;93560.31;;;16.92;93.74
51829;BME280;37881;48.024;8.774;2022-08-19T00:41:05;93553.69;;;16.89;94.42
51829;BME280;37881;48.024;8.774;2022-08-19T00:43:32;93552.00;;;16.92;94.85
51829;BME280;37881;48.024;8.774;2022-08-19T00:45:59;93547.84;;;16.87;94.72
51829;BME280;37881;48.024;8.774;2022-08-19T00:48:27;93557.41;;;16.86;95.25
51829;BME280;37881;48.024;8.774;2022-08-19T00:50:54;93554.66;;;16.86;95.52
51829;BME280;37881;48.024;8.774;2022-08-19T00:53:24;93547.72;;;16.82;94.92
51829;BME280;37881;48.024;8.774;2022-08-19T00:55:55;93546.50;;;16.83;93.98
51829;BME280;37881;48.024;8.774;2022-08-19T00:58:26;93539.81;;;16.80;94.66
51829;BME280;37881;48.024;8.774;2022-08-19T01:00:53;93536.28;;;16.80;95.08
51829;BME280;37881;48.024;8.774;2022-08-19T01:03:21;93543.38;;;16.81;95.08
51829;BME280;37881;48.024;8.774;2022-08-19T01:05:49;93548.31;;;16.76;95.96
51829;BME280;37881;48.024;8.774;2022-08-19T01:08:18;93548.78;;;16.66;95.29
51829;BME280;37881;48.024;8.774;2022-08-19T01:10:49;93547.84;;;16.78;94.88
51829;BME280;37881;48.024;8.774;2022-08-19T01:13:23;93541.53;;;16.77;94.83
51829;BME280;37881;48.024;8.774;2022-08-19T01:15:56;93542.47;;;16.65;95.43
51829;BME280;37881;48.024;8.774;2022-08-19T01:18:24;93552.63;;;16.77;95.45
51829;BME280;37881;48.024;8.774;2022-08-19T01:20:56;93541.56;;;16.59;96.53
51829;BME280;37881;48.024;8.774;2022-08-19T01:23:24;93549.53;;;16.75;95.60
51829;BME280;37881;48.024;8.774;2022-08-19T01:26:16;93534.16;;;16.65;96.17
51829;BME280;37881;48.024;8.774;2022-08-19T01:28:46;93540.16;;;16.73;94.72
51829;BME280;37881;48.024;8.774;2022-08-19T01:31:17;93544.78;;;16.67;95.97
51829;BME280;37881;48.024;8.774;2022-08-19T01:33:55;93539.09;;;16.61;95.79
51829;BME280;37881;48.024;8.774;2022-08-19T01:36:54;93540.78;;;16.68;94.73
51829;BME280;37881;48.024;8.774;2022-08-19T01:39:23;93532.47;;;16.68;94.98
51829;BME280;37881;48.024;8.774;2022-08-19T01:41:50;93529.72;;;16.58;95.82
51829;BME280;37881;48.024;8.774;2022-08-19T01:44:20;93533.56;;;16.52;96.36
51829;BME280;37881;48.024;8.774;2022-08-19T01:46:51;93532.63;;;16.46;96.15
51829;BME280;37881;48.024;8.774;2022-08-19T01:49:20;93532.34;;;16.53;95.95
51829;BME280;37881;48.024;8.774;2022-08-19T01:51:48;93523.88;;;16.56;95.08
51829;BME280;37881;48.024;8.774;2022-08-19T01:54:17;93536.03;;;16.50;96.35
51829;BME280;37881;48.024;8.774;2022-08-19T01:56:57;93535.41;;;16.55;95.51
51829;BME280;37881;48.024;8.774;2022-08-19T01:59:24;93538.19;;;16.55;95.99
51829;BME280;37881;48.024;8.774;2022-08-19T02:01:51;93538.63;;;16.53;95.33
51829;BME280;37881;48.024;8.774;2022-08-19T02:04:17;93527.25;;;16.51;95.48
51829;BME280;37881;48.024;8.774;2022-08-19T02:06:44;93531.59;;;16.52;96.33
51829;BME280;37881;48.024;8.774;2022-08-19T02:09:11;93524.94;;;16.59;96.56
51829;BME280;37881;48.024;8.774;2022-08-19T02:11:38;93528.78;;;16.62;96.03
51829;BME280;37881;48.024;8.774;2022-08-19T02:14:07;93533.88;;;16.63;96.31
51829;BME280;37881;48.024;8.774;2022-08-19T02:16:35;93540.66;;;16.62;96.61
51829;BME280;37881;48.024;8.774;2022-08-19T02:19:03;93543.72;;;16.64;96.12
51829;BME280;37881;48.024;8.774;2022-08-19T02:21:31;93536.03;;;16.68;95.56
51829;BME280;37881;48.024;8.774;2022-08-19T02:23:58;93532.34;;;16.53;96.47
51829;BME280;37881;48.024;8.774;2022-08-19T02:26:26;93529.56;;;16.53;97.04
51829;BME280;37881;48.024;8.774;2022-08-19T02:28:54;93533.25;;;16.59;96.71
51829;BME280;37881;48.024;8.774;2022-08-19T02:31:23;93535.88;;;16.53;96.61
51829;BME280;37881;48.024;8.774;2022-08-19T02:33:52;93530.50;;;16.41;97.04
51829;BME280;37881;48.024;8.774;2022-08-19T02:36:23;93541.41;;;16.53;97.26
51829;BME280;37881;48.024;8.774;2022-08-19T02:38:51;93538.06;;;16.40;97.93
51829;BME280;37881;48.024;8.774;2022-08-19T02:41:23;93536.19;;;16.46;97.57
51829;BME280;37881;48.024;8.774;2022-08-19T02:43:56;93533.44;;;16.37;98.67
51829;BME280;37881;48.024;8.774;2022-08-19T02:46:47;93536.50;;;16.39;97.64
51829;BME280;37881;48.024;8.774;2022-08-19T02:49:17;93530.50;;;16.41;98.46
51829;BME280;37881;48.024;8.774;2022-08-19T02:51:46;93534.38;;;16.34;98.61
51829;BME280;37881;48.024;8.774;2022-08-19T02:54:13;93542.03;;;16.39;98.12
51829;BME280;37881;48.024;8.774;2022-08-19T02:56:42;93537.13;;;16.43;96.27
51829;BME280;37881;48.024;8.774;2022-08-19T02:59:09;93551.41;;;16.42;96.54
51829;BME280;37881;48.024;8.774;2022-08-19T03:01:38;93547.75;;;16.45;97.33
51829;BME280;37881;48.024;8.774;2022-08-19T03:04:07;93544.50;;;16.55;96.69
51829;BME280;37881;48.024;8.774;2022-08-19T03:06:40;93546.34;;;16.49;96.61
51829;BME280;37881;48.024;8.774;2022-08-19T03:09:07;93548.97;;;16.53;96.99
51829;BME280;37881;48.024;8.774;2022-08-19T03:11:34;93559.88;;;16.47;95.51
51829;BME280;37881;48.024;8.774;2022-08-19T03:14:02;93553.25;;;16.54;95.97
51829;BME280;37881;48.024;8.774;2022-08-19T03:16:32;93553.72;;;16.62;95.16
51829;BME280;37881;48.024;8.774;2022-08-19T03:19:00;93553.72;;;16.62;95.46
51829;BME280;37881;48.024;8.774;2022-08-19T03:21:30;93553.72;;;16.62;95.31
51829;BME280;37881;48.024;8.774;2022-08-19T03:24:03;93545.41;;;16.71;93.65
51829;BME280;37881;48.024;8.774;2022-08-19T03:26:30;93553.72;;;16.62;94.23
51829;BME280;37881;48.024;8.774;2022-08-19T03:28:57;93548.63;;;16.69;94.38
51829;BME280;37881;48.024;8.774;2022-08-19T03:31:30;93554.78;;;16.73;94.40
51829;BME280;37881;48.024;8.774;2022-08-19T03:34:20;93554.47;;;16.81;94.65
51829;BME280;37881;48.024;8.774;2022-08-19T03:36:47;93551.69;;;16.71;93.57
51829;BME280;37881;48.024;8.774;2022-08-19T03:39:14;93559.25;;;16.62;95.90
51829;BME280;37881;48.024;8.774;2022-08-19T03:41:43;93562.97;;;16.58;93.36
51829;BME280;37881;48.024;8.774;2022-08-19T03:44:16;93552.66;;;16.59;94.64
51829;BME280;37881;48.024;8.774;2022-08-19T03:46:50;93548.94;;;16.71;94.75
51829;BME280;37881;48.024;8.774;2022-08-19T03:49:18;93548.63;;;16.69;95.26
51829;BME280;37881;48.024;8.774;2022-08-19T03:51:46;93555.72;;;16.70;94.44
51829;BME280;37881;48.024;8.774;2022-08-19T03:54:15;93556.03;;;16.72;93.75
51829;BME280;37881;48.024;8.774;2022-08-19T03:56:44;93555.22;;;16.72;94.04
51829;BME280;37881;48.024;8.774;2022-08-19T03:59:15;93566.94;;;16.85;93.54
51829;BME280;37881;48.024;8.774;2022-08-19T04:01:43;93559.56;;;16.73;94.29
51829;BME280;37881;48.024;8.774;2022-08-19T04:04:10;93563.41;;;16.75;93.80
51829;BME280;37881;48.024;8.774;2022-08-19T04:06:38;93557.09;;;16.75;93.36
51829;BME280;37881;48.024;8.774;2022-08-19T04:09:08;93554.03;;;16.73;93.82
51829;BME280;37881;48.024;8.774;2022-08-19T04:11:47;93551.44;;;16.60;93.57
51829;BME280;37881;48.024;8.774;2022-08-19T04:14:19;93546.81;;;16.66;94.18
51829;BME280;37881;48.024;8.774;2022-08-19T04:16:47;93542.78;;;16.67;94.08
51829;BME280;37881;48.024;8.774;2022-08-19T04:19:15;93540.00;;;16.67;94.46
51829;BME280;37881;48.024;8.774;2022-08-19T04:21:45;93537.06;;;16.80;93.95
51829;BME280;37881;48.024;8.774;2022-08-19T04:24:13;93539.69;;;16.84;94.05
51829;BME280;37881;48.024;8.774;2022-08-19T04:26:41;93536.63;;;16.91;94.13
51829;BME280;37881;48.024;8.774;2022-08-19T04:29:11;93542.78;;;16.86;93.78
51829;BME280;37881;48.024;8.774;2022-08-19T04:31:39;93539.72;;;16.74;93.95
51829;BME280;37881;48.024;8.774;2022-08-19T04:34:09;93541.53;;;16.77;93.98
51829;BME280;37881;48.024;8.774;2022-08-19T04:36:41;93539.41;;;16.82;93.74
51829;BME280;37881;48.024;8.774;2022-08-19T04:39:13;93537.38;;;16.73;95.02
51829;BME280;37881;48.024;8.774;2022-08-19T04:41:42;93539.09;;;16.70;95.17
51829;BME280;37881;48.024;8.774;2022-08-19T04:44:27;93543.84;;;16.70;94.92
51829;BME280;37881;48.024;8.774;2022-08-19T04:46:59;93554.31;;;16.75;94.81
51829;BME280;37881;48.024;8.774;2022-08-19T04:49:27;93548.47;;;16.73;95.18
51829;BME280;37881;48.024;8.774;2022-08-19T04:51:54;93548.03;;;16.65;94.37
51829;BME280;37881;48.024;8.774;2022-08-19T04:54:24;93563.44;;;16.66;94.81
51829;BME280;37881;48.024;8.774;2022-08-19T04:57:05;93565.88;;;16.64;95.05
51829;BME280;37881;48.024;8.774;2022-08-19T04:59:34;93579.41;;;16.71;93.60
51829;BME280;37881;48.024;8.774;2022-08-19T05:02:01;93574.03;;;16.77;93.75
51829;BME280;37881;48.024;8.774;2022-08-19T05:04:28;93569.88;;;16.72;93.38
51829;BME280;37881;48.024;8.774;2022-08-19T05:06:59;93575.88;;;16.62;94.07
51829;BME280;37881;48.024;8.774;2022-08-19T05:09:28;93590.53;;;16.62;93.87
51829;BME280;37881;48.024;8.774;2022-08-19T05:12:15;93591.88;;;16.76;93.08
51829;BME280;37881;48.024;8.774;2022-08-19T05:14:43;93592.47;;;16.80;93.05
51829;BME280;37881;48.024;8.774;2022-08-19T05:17:11;93591.09;;;16.75;93.60
51829;BME280;37881;48.024;8.774;2022-08-19T05:19:53;93600.97;;;16.76;93.85
51829;BME280;37881;48.024;8.774;2022-08-19T05:22:39;93598.19;;;16.76;93.20
51829;BME280;37881;48.024;8.774;2022-08-19T05:25:10;93597.25;;;16.80;93.88
51829;BME280;37881;48.024;8.774;2022-08-19T05:27:41;93599.91;;;16.83;93.36
51829;BME280;37881;48.024;8.774;2022-08-19T05:30:09;93596.66;;;16.75;93.52
51829;BME280;37881;48.024;8.774;2022-08-19T05:32:36;93599.41;;;16.75;93.24
51829;BME280;37881;48.024;8.774;2022-08-19T05:35:04;93605.44;;;16.83;93.56
51829;BME280;37881;48.024;8.774;2022-08-19T05:37:31;93603.59;;;16.89;92.65
51829;BME280;37881;48.024;8.774;2022-08-19T05:39:58;93602.53;;;16.87;92.68
51829;BME280;37881;48.024;8.774;2022-08-19T05:42:24;93612.06;;;16.86;92.90
51829;BME280;37881;48.024;8.774;2022-08-19T05:44:53;93620.97;;;16.81;93.63
51829;BME280;37881;48.024;8.774;2022-08-19T05:47:19;93622.06;;;16.83;92.79
51829;BME280;37881;48.024;8.774;2022-08-19T05:49:47;93630.97;;;16.60;93.94
51829;BME280;37881;48.024;8.774;2022-08-19T05:52:15;93628.03;;;16.54;95.35
51829;BME280;37881;48.024;8.774;2022-08-19T05:54:45;93630.38;;;16.65;94.80
51829;BME280;37881;48.024;8.774;2022-08-19T05:57:18;93626.22;;;16.60;94.85
51829;BME280;37881;48.024;8.774;2022-08-19T05:59:45;93632.06;;;16.71;94.16
51829;BME280;37881;48.024;8.774;2022-08-19T06:02:18;93617.00;;;16.72;93.87
51829;BME280;37881;48.024;8.774;2022-08-19T06:04:45;93616.38;;;16.68;93.41
51829;BME280;37881;48.024;8.774;2022-08-19T06:07:12;93614.97;;;16.73;92.48
51829;BME280;37881;48.024;8.774;2022-08-19T06:09:39;93611.59;;;16.69;93.30
51829;BME280;37881;48.024;8.774;2022-08-19T06:12:09;93620.66;;;16.69;92.98
51829;BME280;37881;48.024;8.774;2022-08-19T06:14:36;93614.66;;;16.80;92.39
51829;BME280;37881;48.024;8.774;2022-08-19T06:17:07;93605.16;;;16.90;92.10
51829;BME280;37881;48.024;8.774;2022-08-19T06:19:34;93612.22;;;16.91;91.73
51829;BME280;37881;48.024;8.774;2022-08-19T06:22:06;93616.81;;;16.76;91.75
51829;BME280;37881;48.024;8.774;2022-08-19T06:24:34;93619.44;;;16.80;90.86
51829;BME280;37881;48.024;8.774;2022-08-19T06:27:03;93628.53;;;16.89;90.81
51829;BME280;37881;48.024;8.774;2022-08-19T06:29:32;93625.91;;;16.86;91.23
51829;BME280;37881;48.024;8.774;2022-08-19T06:32:01;93624.06;;;16.73;92.02
51829;BME280;37881;48.024;8.774;2022-08-19T06:34:31;93629.00;;;16.60;93.55
51829;BME280;37881;48.024;8.774;2022-08-19T06:36:59;93615.28;;;16.75;92.73
51829;BME280;37881;48.024;8.774;2022-08-19T06:39:30;93618.53;;;16.64;92.77
51829;BME280;37881;48.024;8.774;2022-08-19T06:42:00;93606.97;;;16.66;92.57
51829;BME280;37881;48.024;8.774;2022-08-19T06:44:29;93617.16;;;16.96;91.55
51829;BME280;37881;48.024;8.774;2022-08-19T06:47:07;93614.66;;;17.08;90.61
51829;BME280;37881;48.024;8.774;2022-08-19T06:49:41;93612.66;;;16.90;91.04
51829;BME280;37881;48.024;8.774;2022-08-19T06:52:10;93621.91;;;16.96;90.62
51829;BME280;37881;48.024;8.774;2022-08-19T06:54:40;93621.78;;;16.81;92.09
51829;BME280;37881;48.024;8.774;2022-08-19T06:57:23;93630.66;;;16.76;91.89
51829;BME280;37881;48.024;8.774;2022-08-19T06:59:50;93632.22;;;16.68;92.58
51829;BME280;37881;48.024;8.774;2022-08-19T07:02:18;93610.53;;;16.85;91.26
51829;BME280;37881;48.024;8.774;2022-08-19T07:04:45;93626.84;;;16.64;92.44
51829;BME280;37881;48.024;8.774;2022-08-19T07:07:14;93621.44;;;16.79;91.64
51829;BME280;37881;48.024;8.774;2022-08-19T07:09:48;93621.59;;;16.75;91.56
51829;BME280;37881;48.024;8.774;2022-08-19T07:12:23;93619.28;;;16.74;91.08
51829;BME280;37881;48.024;8.774;2022-08-19T07:14:52;93616.22;;;16.81;91.05
51829;BME280;37881;48.024;8.774;2022-08-19T07:17:20;93627.16;;;16.85;91.81
51829;BME280;37881;48.024;8.774;2022-08-19T07:19:47;93626.22;;;16.97;90.49
51829;BME280;37881;48.024;8.774;2022-08-19T07:22:14;93627.00;;;16.88;91.58
51829;BME280;37881;48.024;8.774;2022-08-19T07:24:43;93620.38;;;16.95;91.05
51829;BME280;37881;48.024;8.774;2022-08-19T07:27:17;93624.69;;;16.87;90.59
51829;BME280;37881;48.024;8.774;2022-08-19T07:29:50;93624.22;;;16.97;89.79
51829;BME280;37881;48.024;8.774;2022-08-19T07:32:26;93630.53;;;16.98;89.66
51829;BME280;37881;48.024;8.774;2022-08-19T07:34:53;93629.00;;;16.78;89.88
51829;BME280;37881;48.024;8.774;2022-08-19T07:37:23;93635.13;;;16.73;89.83
51829;BME280;37881;48.024;8.774;2022-08-19T07:39:56;93633.94;;;16.84;90.35
51829;BME280;37881;48.024;8.774;2022-08-19T07:42:23;93636.22;;;17.04;88.79
51829;BME280;37881;48.024;8.774;2022-08-19T07:44:49;93638.38;;;17.09;88.10
51829;BME280;37881;48.024;8.774;2022-08-19T07:47:17;93642.69;;;16.91;89.27
51829;BME280;37881;48.024;8.774;2022-08-19T07:50:09;93648.56;;;17.03;88.34
51829;BME280;37881;48.024;8.774;2022-08-19T07:52:37;93641.31;;;17.05;87.79
51829;BME280;37881;48.024;8.774;2022-08-19T07:55:08;93640.81;;;17.16;87.04
51829;BME280;37881;48.024;8.774;2022-08-19T07:57:55;93642.50;;;17.23;86.35
51829;BME280;37881;48.024;8.774;2022-08-19T08:00:23;93634.09;;;16.99;87.96
51829;BME280;37881;48.024;8.774;2022-08-19T08:02:51;93635.16;;;17.01;88.52
51829;BME280;37881;48.024;8.774;2022-08-19T08:05:22;93634.84;;;17.08;86.85
51829;BME280;37881;48.024;8.774;2022-08-19T08:08:11;93640.81;;;17.16;86.28
51829;BME280;37881;48.024;8.774;2022-08-19T08:10:58;93642.09;;;16.96;86.20
51829;BME280;37881;48.024;8.774;2022-08-19T08:13:25;93658.25;;;16.98;86.89
51829;BME280;37881;48.024;8.774;2022-08-19T08:15:53;93660.28;;;16.88;88.07
51829;BME280;37881;48.024;8.774;2022-08-19T08:18:23;93650.53;;;17.02;87.88
51829;BME280;37881;48.024;8.774;2022-08-19T08:20:54;93651.00;;;17.10;87.32
51829;BME280;37881;48.024;8.774;2022-08-19T08:23:22;93653.47;;;17.17;86.50
51829;BME280;37881;48.024;8.774;2022-08-19T08:25:52;93652.34;;;17.24;85.91
51829;BME280;37881;48.024;8.774;2022-08-19T08:28:21;93655.44;;;17.26;86.67
51829;BME280;37881;48.024;8.774;2022-08-19T08:30:49;93657.00;;;17.17;86.85
51829;BME280;37881;48.024;8.774;2022-08-19T08:33:21;93663.28;;;17.27;85.96
51829;BME280;37881;48.024;8.774;2022-08-19T08:35:58;93653.59;;;17.23;85.50
51829;BME280;37881;48.024;8.774;2022-08-19T08:38:25;93663.28;;;17.27;85.24
51829;BME280;37881;48.024;8.774;2022-08-19T08:40:58;93661.44;;;17.24;85.74
51829;BME280;37881;48.024;8.774;2022-08-19T08:43:36;93675.34;;;17.15;85.85
51829;BME280;37881;48.024;8.774;2022-08-19T08:46:08;93682.59;;;17.03;86.49
51829;BME280;37881;48.024;8.774;2022-08-19T08:48:46;93696.13;;;17.20;85.66
51829;BME280;37881;48.024;8.774;2022-08-19T08:51:27;93690.56;;;17.20;85.09
51829;BME280;37881;48.024;8.774;2022-08-19T08:54:02;93691.19;;;17.24;85.99
51829;BME280;37881;48.024;8.774;2022-08-19T08:56:31;93693.81;;;17.27;86.12
51829;BME280;37881;48.024;8.774;2022-08-19T08:59:07;93689.16;;;17.43;85.70
51829;BME280;37881;48.024;8.774;2022-08-19T09:01:36;93701.81;;;17.34;85.86
51829;BME280;37881;48.024;8.774;2022-08-19T09:04:05;93701.34;;;17.36;85.96
51829;BME280;37881;48.024;8.774;2022-08-19T09:09:52;93695.31;;;17.37;86.71
51829;BME280;37881;48.024;8.774;2022-08-19T09:15:20;93707.97;;;17.39;86.36
51829;BME280;37881;48.024;8.774;2022-08-19T09:18:03;93703.66;;;17.28;88.04
51829;BME280;37881;48.024;8.774;2022-08-19T09:20:32;93703.50;;;17.32;87.67
51829;BME280;37881;48.024;8.774;2022-08-19T09:22:59;93709.03;;;17.32;88.06
51829;BME280;37881;48.024;8.774;2022-08-19T09:25:26;93707.66;;;17.27;88.38
51829;BME280;37881;48.024;8.774;2022-08-19T09:27:55;93714.63;;;17.23;88.49
51829;BME280;37881;48.024;8.774;2022-08-19T09:30:34;93704.59;;;17.16;88.03
51829;BME280;37881;48.024;8.774;2022-08-19T09:33:04;93705.84;;;17.15;89.34
51829;BME280;37881;48.024;8.774;2022-08-19T09:35:32;93716.44;;;17.26;88.10
51829;BME280;37881;48.024;8.774;2022-08-19T09:38:20;93706.72;;;17.30;87.79
51829;BME280;37881;48.024;8.774;2022-08-19T09:40:48;93706.72;;;17.40;88.37
51829;BME280;37881;48.024;8.774;2022-08-19T09:43:16;93702.13;;;17.27;89.06
51829;BME280;37881;48.024;8.774;2022-08-19T09:46:00;93711.66;;;17.26;88.59
51829;BME280;37881;48.024;8.774;2022-08-19T09:48:27;93703.03;;;17.33;88.06
51829;BME280;37881;48.024;8.774;2022-08-19T09:50:54;93720.91;;;17.32;88.97
51829;BME280;37881;48.024;8.774;2022-08-19T09:53:21;93714.75;;;17.37;89.23
51829;BME280;37881;48.024;8.774;2022-08-19T09:55:51;93714.09;;;17.52;89.03
51829;BME280;37881;48.024;8.774;2022-08-19T09:58:18;93717.97;;;17.45;87.06
51829;BME280;37881;48.024;8.774;2022-08-19T10:00:51;93723.81;;;17.47;87.81
51829;BME280;37881;48.024;8.774;2022-08-19T10:03:18;93715.50;;;17.47;88.60
51829;BME280;37881;48.024;8.774;2022-08-19T10:05:45;93716.25;;;17.48;88.34
51829;BME280;37881;48.024;8.774;2022-08-19T10:08:24;93715.66;;;17.53;88.13
51829;BME280;37881;48.024;8.774;2022-08-19T10:10:53;93732.00;;;17.42;87.91
51829;BME280;37881;48.024;8.774;2022-08-19T10:13:24;93737.09;;;17.43;88.80
51829;BME280;37881;48.024;8.774;2022-08-19T10:15:53;93728.91;;;17.40;88.61
51829;BME280;37881;48.024;8.774;2022-08-19T10:18:23;93733.84;;;17.26;88.87
51829;BME280;37881;48.024;8.774;2022-08-19T10:20:52;93735.09;;;17.16;90.09
51829;BME280;37881;48.024;8.774;2022-08-19T10:23:20;93733.41;;;17.19;90.23
51829;BME280;37881;48.024;8.774;2022-08-19T10:25:48;93740.50;;;17.10;90.39
51829;BME280;37881;48.024;8.774;2022-08-19T10:28:15;93738.34;;;17.24;90.46
51829;BME280;37881;48.024;8.774;2022-08-19T10:30:45;93739.41;;;17.26;90.68
51829;BME280;37881;48.024;8.774;2022-08-19T10:33:12;93743.41;;;17.25;90.39
51829;BME280;37881;48.024;8.774;2022-08-19T10:35:40;93740.19;;;17.27;89.20
51829;BME280;37881;48.024;8.774;2022-08-19T10:38:23;93747.44;;;17.15;90.72
51829;BME280;37881;48.024;8.774;2022-08-19T10:40:57;93743.13;;;17.05;90.81
51829;BME280;37881;48.024;8.774;2022-08-19T10:43:24;93759.13;;;17.10;90.36
51829;BME280;37881;48.024;8.774;2022-08-19T10:45:53;93750.81;;;17.19;89.90
51829;BME280;37881;48.024;8.774;2022-08-19T10:48:22;93766.97;;;17.30;89.23
51829;BME280;37881;48.024;8.774;2022-08-19T10:50:49;93760.81;;;17.26;89.18
51829;BME280;37881;48.024;8.774;2022-08-19T10:53:34;93758.19;;;17.22;90.30
51829;BME280;37881;48.024;8.774;2022-08-19T10:56:01;93756.19;;;16.95;91.00
51829;BME280;37881;48.024;8.774;2022-08-19T10:58:47;93769.16;;;17.07;90.89
51829;BME280;37881;48.024;8.774;2022-08-19T11:01:14;93765.78;;;17.12;90.33
51829;BME280;37881;48.024;8.774;2022-08-19T11:03:41;93763.44;;;17.20;90.72
51829;BME280;37881;48.024;8.774;2022-08-19T11:06:08;93766.69;;;17.19;90.24
51829;BME280;37881;48.024;8.774;2022-08-19T11:08:36;93766.22;;;17.20;90.25
51829;BME280;37881;48.024;8.774;2022-08-19T11:11:05;93764.34;;;17.26;90.89
51829;BME280;37881;48.024;8.774;2022-08-19T11:13:35;93761.28;;;17.24;90.99
51829;BME280;37881;48.024;8.774;2022-08-19T11:16:10;93761.13;;;17.28;91.39
51829;BME280;37881;48.024;8.774;2022-08-19T11:18:39;93765.59;;;17.25;91.13
51829;BME280;37881;48.024;8.774;2022-08-19T11:21:09;93776.06;;;17.30;90.04
51829;BME280;37881;48.024;8.774;2022-08-19T11:23:36;93777.00;;;17.36;90.29
51829;BME280;37881;48.024;8.774;2022-08-19T11:26:03;93777.16;;;17.51;90.62
51829;BME280;37881;48.024;8.774;2022-08-19T11:28:30;93778.38;;;17.50;89.97
51829;BME280;37881;48.024;8.774;2022-08-19T11:30:57;93776.69;;;17.44;90.35
51829;BME280;37881;48.024;8.774;2022-08-19T11:33:23;93781.31;;;17.47;91.01
51829;BME280;37881;48.024;8.774;2022-08-19T11:35:53;93787.19;;;17.49;90.39
51829;BME280;37881;48.024;8.774;2022-08-19T11:38:20;93784.72;;;17.51;88.91
51829;BME280;37881;48.024;8.774;2022-08-19T11:40:57;93782.84;;;17.48;89.44
51829;BME280;37881;48.024;8.774;2022-08-19T11:43:24;93789.94;;;17.40;89.20
51829;BME280;37881;48.024;8.774;2022-08-19T11:45:54;93787.63;;;17.47;89.40
51829;BME280;37881;48.024;8.774;2022-08-19T11:48:22;93792.88;;;17.45;89.62
51829;BME280;37881;48.024;8.774;2022-08-19T11:50:49;93791.94;;;17.48;90.18
51829;BME280;37881;48.024;8.774;2022-08-19T11:53:17;93787.31;;;17.64;89.34
51829;BME280;37881;48.024;8.774;2022-08-19T11:55:46;93789.00;;;17.52;90.24
51829;BME280;37881;48.024;8.774;2022-08-19T11:58:15;93789.16;;;17.48;90.19
51829;BME280;37881;48.024;8.774;2022-08-19T12:00:44;93787.00;;;17.62;90.60
51829;BME280;37881;48.024;8.774;2022-08-19T12:03:12;93796.53;;;17.70;89.89
51829;BME280;37881;48.024;8.774;2022-08-19T12:05:40;93793.34;;;17.25;91.99
51829;BME280;37881;48.024;8.774;2022-08-19T12:08:08;93787.47;;;17.23;91.22
51829;BME280;37881;48.024;8.774;2022-08-19T12:10:35;93784.84;;;17.56;90.35
51829;BME280;37881;48.024;8.774;2022-08-19T12:13:02;93793.31;;;17.62;88.71
51829;BME280;37881;48.024;8.774;2022-08-19T12:15:29;93792.41;;;17.65;89.55
51829;BME280;37881;48.024;8.774;2022-08-19T12:18:04;93786.88;;;17.47;89.25
51829;BME280;37881;48.024;8.774;2022-08-19T12:20:34;93796.09;;;17.62;89.06
51829;BME280;37881;48.024;8.774;2022-08-19T12:23:03;93787.44;;;17.78;87.97
51829;BME280;37881;48.024;8.774;2022-08-19T12:25:29;93795.59;;;17.82;88.11
51829;BME280;37881;48.024;8.774;2022-08-19T12:27:57;93789.16;;;17.85;87.83
51829;BME280;37881;48.024;8.774;2022-08-19T12:30:25;93800.44;;;17.35;91.34
51829;BME280;37881;48.024;8.774;2022-08-19T12:32:51;93795.03;;;17.23;93.36
51829;BME280;37881;48.024;8.774;2022-08-19T12:35:18;93793.66;;;17.55;92.72
51829;BME280;37881;48.024;8.774;2022-08-19T12:37:48;93794.88;;;17.63;90.60
51829;BME280;37881;48.024;8.774;2022-08-19T12:40:23;93789.50;;;17.41;93.08
51829;BME280;37881;48.024;8.774;2022-08-19T12:42:53;93788.56;;;17.35;91.75
51829;BME280;37881;48.024;8.774;2022-08-19T12:45:19;93792.06;;;17.82;90.78
51829;BME280;37881;48.024;8.774;2022-08-19T12:47:46;93789.47;;;17.50;90.46
51829;BME280;37881;48.024;8.774;2022-08-19T12:50:15;93782.84;;;17.48;90.46
51829;BME280;37881;48.024;8.774;2022-08-19T12:52:41;93787.34;;;17.27;92.76
51829;BME280;37881;48.024;8.774;2022-08-19T12:55:09;93790.88;;;17.27;93.33
51829;BME280;37881;48.024;8.774;2022-08-19T12:57:37;93789.94;;;17.03;95.05
51829;BME280;37881;48.024;8.774;2022-08-19T13:00:08;93794.69;;;17.02;95.94
51829;BME280;37881;48.024;8.774;2022-08-19T13:02:43;93796.09;;;17.07;95.98
51829;BME280;37881;48.024;8.774;2022-08-19T13:05:14;93792.41;;;17.10;95.35
51829;BME280;37881;48.024;8.774;2022-08-19T13:07:43;93791.03;;;17.14;95.86
51829;BME280;37881;48.024;8.774;2022-08-19T13:10:14;93797.34;;;17.15;94.80
51829;BME280;37881;48.024;8.774;2022-08-19T13:12:43;93801.63;;;16.97;97.31
51829;BME280;37881;48.024;8.774;2022-08-19T13:15:11;93803.00;;;17.02;98.99
51829;BME280;37881;48.024;8.774;2022-08-19T13:17:41;93798.09;;;17.06;98.61
51829;BME280;37881;48.024;8.774;2022-08-19T13:20:08;93795.50;;;17.40;96.68
51829;BME280;37881;48.024;8.774;2022-08-19T13:22:36;93804.41;;;17.71;94.91